sensor_id;sensor_type;location;lat;lon;timestamp;P1;durP1;ratioP1;P2;durP2;ratioP2
70228;SDS011;57617;51.988;5.854;2023-04-01T00:00:29;10.10;;;3.40;;
70228;SDS011;57617;51.988;5.854;2023-04-01T00:02:55;7.88;;;3.40;;
70228;SDS011;57617;51.988;5.854;2023-04-01T00:05:20;8.27;;;3.15;;
70228;SDS011;57617;51.988;5.854;2023-04-01T00:07:46;10.88;;;3.05;;
70228;SDS011;57617;51.988;5.854;2023-04-01T00:10:11;6.03;;;3.10;;
70228;SDS011;57617;51.988;5.854;2023-04-01T00:12:38;7.32;;;2.83;;
70228;SDS011;57617;51.988;5.854;2023-04-01T00:15:05;7.93;;;3.30;;
70228;SDS011;57617;51.988;5.854;2023-04-01T00:17:33;11.43;;;3.17;;
70228;SDS011;57617;51.988;5.854;2023-04-01T00:19:59;9.55;;;3.35;;
70228;SDS011;57617;51.988;5.854;2023-04-01T00:22:25;9.75;;;3.53;;
70228;SDS011;57617;51.988;5.854;2023-04-01T00:24:52;8.90;;;3.58;;
70228;SDS011;57617;51.988;5.854;2023-04-01T00:27:17;9.85;;;3.42;;
70228;SDS011;57617;51.988;5.854;2023-04-01T00:29:43;9.82;;;3.70;;
70228;SDS011;57617;51.988;5.854;2023-04-01T00:32:10;8.52;;;3.85;;
70228;SDS011;57617;51.988;5.854;2023-04-01T00:34:35;8.68;;;4.22;;
70228;SDS011;57617;51.988;5.854;2023-04-01T00:37:01;11.02;;;4.13;;
70228;SDS011;57617;51.988;5.854;2023-04-01T00:39:30;9.68;;;4.45;;
70228;SDS011;57617;51.988;5.854;2023-04-01T00:41:56;11.07;;;4.90;;
70228;SDS011;57617;51.988;5.854;2023-04-01T00:44:23;14.80;;;4.93;;
70228;SDS011;57617;51.988;5.854;2023-04-01T00:46:49;10.68;;;4.55;;
70228;SDS011;57617;51.988;5.854;2023-04-01T00:49:17;13.63;;;5.32;;
70228;SDS011;57617;51.988;5.854;2023-04-01T00:51:45;13.32;;;5.82;;
70228;SDS011;57617;51.988;5.854;2023-04-01T00:54:13;14.52;;;6.28;;
70228;SDS011;57617;51.988;5.854;2023-04-01T00:56:48;17.30;;;6.40;;
70228;SDS011;57617;51.988;5.854;2023-04-01T00:59:22;17.95;;;7.10;;
70228;SDS011;57617;51.988;5.854;2023-04-01T01:01:51;17.85;;;7.40;;
70228;SDS011;57617;51.988;5.854;2023-04-01T01:04:30;17.75;;;7.50;;
70228;SDS011;57617;51.988;5.854;2023-04-01T01:07:03;23.30;;;8.77;;
70228;SDS011;57617;51.988;5.854;2023-04-01T01:15:24;23.95;;;9.73;;
70228;SDS011;57617;51.988;5.854;2023-04-01T01:18:07;28.73;;;10.70;;
70228;SDS011;57617;51.988;5.854;2023-04-01T01:21:06;26.83;;;10.30;;
70228;SDS011;57617;51.988;5.854;2023-04-01T01:24:03;26.20;;;10.82;;
70228;SDS011;57617;51.988;5.854;2023-04-01T01:37:41;24.73;;;10.88;;
70228;SDS011;57617;51.988;5.854;2023-04-01T01:40:09;26.80;;;10.50;;
70228;SDS011;57617;51.988;5.854;2023-04-01T01:42:37;27.58;;;10.57;;
70228;SDS011;57617;51.988;5.854;2023-04-01T01:45:06;29.70;;;10.95;;
70228;SDS011;57617;51.988;5.854;2023-04-01T01:47:34;26.92;;;10.13;;
70228;SDS011;57617;51.988;5.854;2023-04-01T01:50:01;30.58;;;9.50;;
70228;SDS011;57617;51.988;5.854;2023-04-01T01:52:29;25.98;;;8.90;;
70228;SDS011;57617;51.988;5.854;2023-04-01T01:54:55;34.33;;;9.40;;
70228;SDS011;57617;51.988;5.854;2023-04-01T01:57:28;32.20;;;8.57;;
70228;SDS011;57617;51.988;5.854;2023-04-01T01:59:58;27.98;;;9.05;;
70228;SDS011;57617;51.988;5.854;2023-04-01T02:02:26;30.42;;;8.80;;
70228;SDS011;57617;51.988;5.854;2023-04-01T02:04:56;33.88;;;9.18;;
70228;SDS011;57617;51.988;5.854;2023-04-01T02:07:27;41.72;;;10.68;;
70228;SDS011;57617;51.988;5.854;2023-04-01T02:09:56;33.70;;;9.70;;
70228;SDS011;57617;51.988;5.854;2023-04-01T02:12:21;38.90;;;10.15;;
70228;SDS011;57617;51.988;5.854;2023-04-01T02:14:52;37.60;;;9.98;;
70228;SDS011;57617;51.988;5.854;2023-04-01T02:17:29;35.45;;;9.55;;
70228;SDS011;57617;51.988;5.854;2023-04-01T02:19:57;36.05;;;9.02;;
70228;SDS011;57617;51.988;5.854;2023-04-01T02:22:26;27.40;;;8.18;;
70228;SDS011;57617;51.988;5.854;2023-04-01T02:24:54;33.47;;;8.02;;
70228;SDS011;57617;51.988;5.854;2023-04-01T02:27:26;25.48;;;6.88;;
70228;SDS011;57617;51.988;5.854;2023-04-01T02:29:51;24.58;;;6.10;;
70228;SDS011;57617;51.988;5.854;2023-04-01T02:32:18;28.00;;;6.60;;
70228;SDS011;57617;51.988;5.854;2023-04-01T02:34:45;29.63;;;6.57;;
70228;SDS011;57617;51.988;5.854;2023-04-01T02:37:12;24.92;;;6.22;;
70228;SDS011;57617;51.988;5.854;2023-04-01T02:39:38;28.95;;;6.63;;
70228;SDS011;57617;51.988;5.854;2023-04-01T02:42:04;24.17;;;5.70;;
70228;SDS011;57617;51.988;5.854;2023-04-01T02:44:30;23.45;;;6.53;;
70228;SDS011;57617;51.988;5.854;2023-04-01T02:46:55;20.45;;;5.90;;
70228;SDS011;57617;51.988;5.854;2023-04-01T02:49:21;21.50;;;5.43;;
70228;SDS011;57617;51.988;5.854;2023-04-01T02:51:46;18.75;;;5.20;;
70228;SDS011;57617;51.988;5.854;2023-04-01T02:54:11;18.23;;;5.20;;
70228;SDS011;57617;51.988;5.854;2023-04-01T02:56:37;13.95;;;5.03;;
70228;SDS011;57617;51.988;5.854;2023-04-01T02:59:02;18.63;;;5.10;;
70228;SDS011;57617;51.988;5.854;2023-04-01T03:01:27;13.90;;;4.18;;
70228;SDS011;57617;51.988;5.854;2023-04-01T03:03:53;15.27;;;4.32;;
70228;SDS011;57617;51.988;5.854;2023-04-01T03:06:18;20.42;;;4.70;;
70228;SDS011;57617;51.988;5.854;2023-04-01T03:08:44;16.63;;;4.70;;
70228;SDS011;57617;51.988;5.854;2023-04-01T03:11:10;15.63;;;4.80;;
70228;SDS011;57617;51.988;5.854;2023-04-01T03:13:35;19.10;;;5.80;;
70228;SDS011;57617;51.988;5.854;2023-04-01T03:16:02;20.65;;;5.68;;
70228;SDS011;57617;51.988;5.854;2023-04-01T03:18:27;17.80;;;5.53;;
70228;SDS011;57617;51.988;5.854;2023-04-01T03:20:52;15.48;;;5.68;;
70228;SDS011;57617;51.988;5.854;2023-04-01T03:23:18;17.98;;;5.63;;
70228;SDS011;57617;51.988;5.854;2023-04-01T03:25:45;16.52;;;5.80;;
70228;SDS011;57617;51.988;5.854;2023-04-01T03:28:11;15.07;;;5.43;;
70228;SDS011;57617;51.988;5.854;2023-04-01T03:30:38;13.00;;;5.70;;
70228;SDS011;57617;51.988;5.854;2023-04-01T03:33:03;14.35;;;5.55;;
70228;SDS011;57617;51.988;5.854;2023-04-01T03:35:29;12.57;;;5.35;;
70228;SDS011;57617;51.988;5.854;2023-04-01T03:37:54;13.85;;;5.40;;
70228;SDS011;57617;51.988;5.854;2023-04-01T03:40:20;14.27;;;6.03;;
70228;SDS011;57617;51.988;5.854;2023-04-01T03:42:46;13.75;;;5.78;;
70228;SDS011;57617;51.988;5.854;2023-04-01T03:45:11;16.73;;;6.00;;
70228;SDS011;57617;51.988;5.854;2023-04-01T03:47:37;18.65;;;6.50;;
70228;SDS011;57617;51.988;5.854;2023-04-01T03:50:03;20.92;;;6.95;;
70228;SDS011;57617;51.988;5.854;2023-04-01T03:52:29;20.58;;;7.03;;
70228;SDS011;57617;51.988;5.854;2023-04-01T03:54:54;22.98;;;7.85;;
70228;SDS011;57617;51.988;5.854;2023-04-01T03:57:20;20.42;;;7.75;;
70228;SDS011;57617;51.988;5.854;2023-04-01T03:59:45;18.30;;;7.47;;
70228;SDS011;57617;51.988;5.854;2023-04-01T04:02:11;17.70;;;7.38;;
70228;SDS011;57617;51.988;5.854;2023-04-01T04:04:36;18.95;;;7.25;;
70228;SDS011;57617;51.988;5.854;2023-04-01T04:07:01;13.55;;;6.30;;
70228;SDS011;57617;51.988;5.854;2023-04-01T04:09:27;18.85;;;6.57;;
70228;SDS011;57617;51.988;5.854;2023-04-01T04:11:52;15.95;;;6.53;;
70228;SDS011;57617;51.988;5.854;2023-04-01T04:14:17;14.90;;;6.47;;
70228;SDS011;57617;51.988;5.854;2023-04-01T04:16:43;18.15;;;7.13;;
70228;SDS011;57617;51.988;5.854;2023-04-01T04:19:08;18.17;;;6.35;;
70228;SDS011;57617;51.988;5.854;2023-04-01T04:21:33;16.83;;;6.57;;
70228;SDS011;57617;51.988;5.854;2023-04-01T04:23:59;15.95;;;6.22;;
70228;SDS011;57617;51.988;5.854;2023-04-01T04:26:26;13.63;;;6.45;;
70228;SDS011;57617;51.988;5.854;2023-04-01T04:28:51;16.23;;;6.68;;
70228;SDS011;57617;51.988;5.854;2023-04-01T04:31:21;18.45;;;7.15;;
70228;SDS011;57617;51.988;5.854;2023-04-01T04:33:47;17.10;;;6.93;;
70228;SDS011;57617;51.988;5.854;2023-04-01T04:36:13;16.85;;;7.43;;
70228;SDS011;57617;51.988;5.854;2023-04-01T04:38:38;18.77;;;7.20;;
70228;SDS011;57617;51.988;5.854;2023-04-01T04:41:08;17.13;;;7.28;;
70228;SDS011;57617;51.988;5.854;2023-04-01T04:43:37;17.38;;;7.45;;
70228;SDS011;57617;51.988;5.854;2023-04-01T04:46:07;17.50;;;7.90;;
70228;SDS011;57617;51.988;5.854;2023-04-01T04:48:33;19.02;;;7.85;;
70228;SDS011;57617;51.988;5.854;2023-04-01T04:50:59;24.10;;;8.02;;
70228;SDS011;57617;51.988;5.854;2023-04-01T04:53:25;18.55;;;7.45;;
70228;SDS011;57617;51.988;5.854;2023-04-01T04:55:51;17.13;;;7.72;;
70228;SDS011;57617;51.988;5.854;2023-04-01T04:58:16;18.42;;;7.88;;
70228;SDS011;57617;51.988;5.854;2023-04-01T05:00:42;17.70;;;8.07;;
70228;SDS011;57617;51.988;5.854;2023-04-01T05:03:07;18.17;;;8.15;;
70228;SDS011;57617;51.988;5.854;2023-04-01T05:05:33;16.48;;;7.97;;
70228;SDS011;57617;51.988;5.854;2023-04-01T05:07:59;20.83;;;8.18;;
70228;SDS011;57617;51.988;5.854;2023-04-01T05:10:24;15.55;;;7.55;;
70228;SDS011;57617;51.988;5.854;2023-04-01T05:12:50;14.63;;;7.47;;
70228;SDS011;57617;51.988;5.854;2023-04-01T05:15:15;18.02;;;7.95;;
70228;SDS011;57617;51.988;5.854;2023-04-01T05:17:40;17.05;;;7.97;;
70228;SDS011;57617;51.988;5.854;2023-04-01T05:20:06;16.35;;;7.07;;
70228;SDS011;57617;51.988;5.854;2023-04-01T05:22:32;17.05;;;6.97;;
70228;SDS011;57617;51.988;5.854;2023-04-01T05:24:57;17.13;;;7.22;;
70228;SDS011;57617;51.988;5.854;2023-04-01T05:27:22;18.27;;;7.78;;
70228;SDS011;57617;51.988;5.854;2023-04-01T05:29:47;14.73;;;7.15;;
70228;SDS011;57617;51.988;5.854;2023-04-01T05:32:14;13.48;;;5.93;;
70228;SDS011;57617;51.988;5.854;2023-04-01T05:34:39;14.18;;;6.50;;
70228;SDS011;57617;51.988;5.854;2023-04-01T05:37:05;11.63;;;5.78;;
70228;SDS011;57617;51.988;5.854;2023-04-01T05:39:32;12.35;;;5.00;;
70228;SDS011;57617;51.988;5.854;2023-04-01T05:42:01;12.90;;;5.40;;
70228;SDS011;57617;51.988;5.854;2023-04-01T05:44:26;11.38;;;5.40;;
70228;SDS011;57617;51.988;5.854;2023-04-01T05:46:52;12.77;;;5.43;;
70228;SDS011;57617;51.988;5.854;2023-04-01T05:49:17;14.63;;;5.75;;
70228;SDS011;57617;51.988;5.854;2023-04-01T05:51:42;15.10;;;5.80;;
70228;SDS011;57617;51.988;5.854;2023-04-01T05:54:07;17.13;;;6.00;;
70228;SDS011;57617;51.988;5.854;2023-04-01T05:56:33;18.85;;;6.35;;
70228;SDS011;57617;51.988;5.854;2023-04-01T05:58:58;22.30;;;6.63;;
70228;SDS011;57617;51.988;5.854;2023-04-01T06:01:23;22.23;;;6.82;;
70228;SDS011;57617;51.988;5.854;2023-04-01T06:03:49;24.63;;;7.57;;
70228;SDS011;57617;51.988;5.854;2023-04-01T06:06:15;28.90;;;7.93;;
70228;SDS011;57617;51.988;5.854;2023-04-01T06:08:45;26.55;;;8.35;;
70228;SDS011;57617;51.988;5.854;2023-04-01T06:16:20;31.80;;;9.20;;
70228;SDS011;57617;51.988;5.854;2023-04-01T06:19:46;28.10;;;8.38;;
70228;SDS011;57617;51.988;5.854;2023-04-01T06:24:39;33.42;;;9.55;;
70228;SDS011;57617;51.988;5.854;2023-04-01T06:27:40;30.67;;;9.00;;
70228;SDS011;57617;51.988;5.854;2023-04-01T06:36:37;49.90;;;11.57;;
70228;SDS011;57617;51.988;5.854;2023-04-01T06:42:05;33.72;;;8.77;;
70228;SDS011;57617;51.988;5.854;2023-04-01T06:45:02;37.17;;;8.02;;
70228;SDS011;57617;51.988;5.854;2023-04-01T06:55:46;22.00;;;5.97;;
70228;SDS011;57617;51.988;5.854;2023-04-01T06:58:21;19.15;;;5.97;;
70228;SDS011;57617;51.988;5.854;2023-04-01T07:01:00;24.90;;;6.18;;
70228;SDS011;57617;51.988;5.854;2023-04-01T07:03:30;16.85;;;5.15;;
70228;SDS011;57617;51.988;5.854;2023-04-01T07:06:05;14.13;;;4.55;;
70228;SDS011;57617;51.988;5.854;2023-04-01T07:08:36;11.55;;;3.83;;
70228;SDS011;57617;51.988;5.854;2023-04-01T07:11:28;12.45;;;4.00;;
70228;SDS011;57617;51.988;5.854;2023-04-01T07:14:03;10.48;;;3.40;;
70228;SDS011;57617;51.988;5.854;2023-04-01T07:16:39;11.05;;;3.55;;
70228;SDS011;57617;51.988;5.854;2023-04-01T07:25:07;8.52;;;2.78;;
70228;SDS011;57617;51.988;5.854;2023-04-01T07:27:39;6.65;;;2.42;;
70228;SDS011;57617;51.988;5.854;2023-04-01T07:30:12;10.60;;;2.50;;
70228;SDS011;57617;51.988;5.854;2023-04-01T07:32:47;5.10;;;2.20;;
70228;SDS011;57617;51.988;5.854;2023-04-01T07:35:17;6.30;;;1.98;;
70228;SDS011;57617;51.988;5.854;2023-04-01T07:40:54;5.32;;;1.67;;
70228;SDS011;57617;51.988;5.854;2023-04-01T07:49:06;3.70;;;1.63;;
70228;SDS011;57617;51.988;5.854;2023-04-01T07:54:31;5.90;;;1.90;;
70228;SDS011;57617;51.988;5.854;2023-04-01T07:57:02;6.80;;;2.55;;
70228;SDS011;57617;51.988;5.854;2023-04-01T08:07:45;7.57;;;2.78;;
70228;SDS011;57617;51.988;5.854;2023-04-01T08:16:31;4.47;;;1.55;;
70228;SDS011;57617;51.988;5.854;2023-04-01T08:19:16;4.10;;;1.60;;
70228;SDS011;57617;51.988;5.854;2023-04-01T08:21:54;2.70;;;1.00;;
70228;SDS011;57617;51.988;5.854;2023-04-01T08:27:06;2.15;;;1.02;;
70228;SDS011;57617;51.988;5.854;2023-04-01T08:29:42;2.15;;;1.00;;
70228;SDS011;57617;51.988;5.854;2023-04-01T08:32:15;1.90;;;1.00;;
70228;SDS011;57617;51.988;5.854;2023-04-01T08:34:46;3.92;;;1.23;;
70228;SDS011;57617;51.988;5.854;2023-04-01T08:37:17;1.75;;;0.93;;
70228;SDS011;57617;51.988;5.854;2023-04-01T08:48:08;3.03;;;1.10;;
70228;SDS011;57617;51.988;5.854;2023-04-01T08:51:08;2.13;;;1.13;;
70228;SDS011;57617;51.988;5.854;2023-04-01T09:02:31;5.95;;;1.50;;
70228;SDS011;57617;51.988;5.854;2023-04-01T09:05:14;2.88;;;1.33;;
70228;SDS011;57617;51.988;5.854;2023-04-01T09:10:49;2.53;;;1.25;;
70228;SDS011;57617;51.988;5.854;2023-04-01T09:27:39;3.90;;;1.90;;
70228;SDS011;57617;51.988;5.854;2023-04-01T09:30:33;4.97;;;1.90;;
70228;SDS011;57617;51.988;5.854;2023-04-01T09:35:50;7.95;;;2.10;;
70228;SDS011;57617;51.988;5.854;2023-04-01T09:41:28;4.50;;;2.03;;
70228;SDS011;57617;51.988;5.854;2023-04-01T09:44:02;5.18;;;2.42;;
70228;SDS011;57617;51.988;5.854;2023-04-01T09:51:59;5.72;;;2.45;;
70228;SDS011;57617;51.988;5.854;2023-04-01T10:02:42;4.72;;;2.40;;
70228;SDS011;57617;51.988;5.854;2023-04-01T10:05:54;8.32;;;2.85;;
70228;SDS011;57617;51.988;5.854;2023-04-01T10:14:30;7.22;;;2.88;;
70228;SDS011;57617;51.988;5.854;2023-04-01T10:25:19;11.48;;;4.28;;
70228;SDS011;57617;51.988;5.854;2023-04-01T10:36:48;15.13;;;5.53;;
70228;SDS011;57617;51.988;5.854;2023-04-01T10:39:20;14.50;;;5.53;;
70228;SDS011;57617;51.988;5.854;2023-04-01T10:42:17;15.98;;;6.22;;
70228;SDS011;57617;51.988;5.854;2023-04-01T11:07:36;16.70;;;6.80;;
70228;SDS011;57617;51.988;5.854;2023-04-01T11:13:33;15.40;;;6.90;;
70228;SDS011;57617;51.988;5.854;2023-04-01T11:18:49;15.52;;;6.70;;
70228;SDS011;57617;51.988;5.854;2023-04-01T11:32:50;5.18;;;2.35;;
70228;SDS011;57617;51.988;5.854;2023-04-01T11:43:47;4.72;;;2.38;;
70228;SDS011;57617;51.988;5.854;2023-04-01T11:46:28;5.72;;;2.90;;
70228;SDS011;57617;51.988;5.854;2023-04-01T11:49:06;4.30;;;2.30;;
70228;SDS011;57617;51.988;5.854;2023-04-01T11:54:34;5.15;;;1.77;;
70228;SDS011;57617;51.988;5.854;2023-04-01T12:09:08;2.55;;;1.50;;
70228;SDS011;57617;51.988;5.854;2023-04-01T12:18:14;3.30;;;1.65;;
70228;SDS011;57617;51.988;5.854;2023-04-01T12:20:49;57.38;;;7.88;;
70228;SDS011;57617;51.988;5.854;2023-04-01T12:23:38;3.72;;;1.90;;
70228;SDS011;57617;51.988;5.854;2023-04-01T12:34:57;4.65;;;2.38;;
70228;SDS011;57617;51.988;5.854;2023-04-01T12:43:48;5.18;;;2.80;;
70228;SDS011;57617;51.988;5.854;2023-04-01T12:46:24;5.35;;;2.70;;
70228;SDS011;57617;51.988;5.854;2023-04-01T12:49:10;6.90;;;2.97;;
70228;SDS011;57617;51.988;5.854;2023-04-01T13:14:56;7.93;;;3.42;;
70228;SDS011;57617;51.988;5.854;2023-04-01T13:17:40;8.73;;;4.03;;
70228;SDS011;57617;51.988;5.854;2023-04-01T13:26:46;6.97;;;3.75;;
70228;SDS011;57617;51.988;5.854;2023-04-01T13:29:31;7.75;;;3.53;;
70228;SDS011;57617;51.988;5.854;2023-04-01T13:43:25;5.72;;;3.00;;
70228;SDS011;57617;51.988;5.854;2023-04-01T14:07:40;6.43;;;2.88;;
70228;SDS011;57617;51.988;5.854;2023-04-01T14:10:18;9.32;;;3.33;;
70228;SDS011;57617;51.988;5.854;2023-04-01T14:12:56;4.93;;;2.80;;
70228;SDS011;57617;51.988;5.854;2023-04-01T14:19:00;4.72;;;2.40;;
70228;SDS011;57617;51.988;5.854;2023-04-01T14:26:35;3.15;;;1.70;;
70228;SDS011;57617;51.988;5.854;2023-04-01T14:32:00;4.47;;;1.60;;
70228;SDS011;57617;51.988;5.854;2023-04-01T14:38:14;6.78;;;2.17;;
70228;SDS011;57617;51.988;5.854;2023-04-01T14:46:14;5.32;;;2.17;;
70228;SDS011;57617;51.988;5.854;2023-04-01T14:49:02;4.47;;;2.40;;
70228;SDS011;57617;51.988;5.854;2023-04-01T14:51:39;4.03;;;2.30;;
70228;SDS011;57617;51.988;5.854;2023-04-01T14:54:16;4.75;;;2.70;;
70228;SDS011;57617;51.988;5.854;2023-04-01T14:56:51;5.93;;;2.78;;
70228;SDS011;57617;51.988;5.854;2023-04-01T14:59:34;7.20;;;2.80;;
70228;SDS011;57617;51.988;5.854;2023-04-01T15:15:46;5.78;;;2.63;;
70228;SDS011;57617;51.988;5.854;2023-04-01T15:23:42;6.07;;;3.30;;
70228;SDS011;57617;51.988;5.854;2023-04-01T15:26:30;5.30;;;3.17;;
70228;SDS011;57617;51.988;5.854;2023-04-01T15:32:16;6.80;;;3.80;;
70228;SDS011;57617;51.988;5.854;2023-04-01T15:37:18;7.05;;;4.10;;
70228;SDS011;57617;51.988;5.854;2023-04-01T15:40:03;10.57;;;4.00;;
70228;SDS011;57617;51.988;5.854;2023-04-01T15:48:13;7.63;;;4.20;;
70228;SDS011;57617;51.988;5.854;2023-04-01T16:01:15;7.78;;;4.30;;
70228;SDS011;57617;51.988;5.854;2023-04-01T16:14:59;7.15;;;4.20;;
70228;SDS011;57617;51.988;5.854;2023-04-01T16:20:00;8.30;;;3.88;;
70228;SDS011;57617;51.988;5.854;2023-04-01T16:22:55;8.68;;;4.43;;
70228;SDS011;57617;51.988;5.854;2023-04-01T16:25:29;9.65;;;4.60;;
70228;SDS011;57617;51.988;5.854;2023-04-01T16:28:21;7.43;;;4.20;;
70228;SDS011;57617;51.988;5.854;2023-04-01T16:30:55;7.78;;;4.50;;
70228;SDS011;57617;51.988;5.854;2023-04-01T16:33:44;9.02;;;4.30;;
70228;SDS011;57617;51.988;5.854;2023-04-01T16:36:35;7.65;;;4.25;;
70228;SDS011;57617;51.988;5.854;2023-04-01T16:39:11;8.65;;;4.28;;
70228;SDS011;57617;51.988;5.854;2023-04-01T16:42:11;7.22;;;4.20;;
70228;SDS011;57617;51.988;5.854;2023-04-01T16:45:02;8.25;;;4.30;;
70228;SDS011;57617;51.988;5.854;2023-04-01T16:47:48;7.78;;;4.60;;
70228;SDS011;57617;51.988;5.854;2023-04-01T16:50:30;6.93;;;3.90;;
70228;SDS011;57617;51.988;5.854;2023-04-01T16:53:40;7.13;;;4.25;;
70228;SDS011;57617;51.988;5.854;2023-04-01T16:56:13;7.57;;;4.32;;
70228;SDS011;57617;51.988;5.854;2023-04-01T17:01:48;7.70;;;4.30;;
70228;SDS011;57617;51.988;5.854;2023-04-01T17:12:42;6.18;;;3.70;;
70228;SDS011;57617;51.988;5.854;2023-04-01T17:18:03;6.40;;;4.05;;
70228;SDS011;57617;51.988;5.854;2023-04-01T17:23:30;7.78;;;4.28;;
70228;SDS011;57617;51.988;5.854;2023-04-01T17:26:41;6.75;;;4.03;;
70228;SDS011;57617;51.988;5.854;2023-04-01T17:29:42;6.20;;;3.78;;
70228;SDS011;57617;51.988;5.854;2023-04-01T17:40:26;7.10;;;4.18;;
70228;SDS011;57617;51.988;5.854;2023-04-01T17:43:06;9.05;;;3.97;;
70228;SDS011;57617;51.988;5.854;2023-04-01T17:45:41;7.72;;;4.30;;
70228;SDS011;57617;51.988;5.854;2023-04-01T17:48:18;7.20;;;4.22;;
70228;SDS011;57617;51.988;5.854;2023-04-01T17:53:45;8.50;;;4.93;;
70228;SDS011;57617;51.988;5.854;2023-04-01T17:56:21;8.02;;;4.85;;
70228;SDS011;57617;51.988;5.854;2023-04-01T17:59:06;8.32;;;5.00;;
70228;SDS011;57617;51.988;5.854;2023-04-01T18:02:01;8.52;;;5.10;;
70228;SDS011;57617;51.988;5.854;2023-04-01T18:15:40;6.97;;;4.47;;
70228;SDS011;57617;51.988;5.854;2023-04-01T18:21:12;7.00;;;4.25;;
70228;SDS011;57617;51.988;5.854;2023-04-01T18:23:56;6.60;;;4.03;;
70228;SDS011;57617;51.988;5.854;2023-04-01T18:26:43;8.32;;;4.35;;
70228;SDS011;57617;51.988;5.854;2023-04-01T18:31:51;6.63;;;4.05;;
70228;SDS011;57617;51.988;5.854;2023-04-01T18:37:42;9.27;;;5.60;;
70228;SDS011;57617;51.988;5.854;2023-04-01T18:43:01;10.38;;;6.20;;
70228;SDS011;57617;51.988;5.854;2023-04-01T18:45:43;10.88;;;6.15;;
70228;SDS011;57617;51.988;5.854;2023-04-01T18:48:37;10.05;;;6.10;;
70228;SDS011;57617;51.988;5.854;2023-04-01T18:51:21;21.42;;;6.30;;
70228;SDS011;57617;51.988;5.854;2023-04-01T18:53:59;9.48;;;5.55;;
70228;SDS011;57617;51.988;5.854;2023-04-01T18:56:39;10.38;;;5.85;;
70228;SDS011;57617;51.988;5.854;2023-04-01T18:59:10;9.82;;;5.72;;
70228;SDS011;57617;51.988;5.854;2023-04-01T19:04:47;10.35;;;6.35;;
70228;SDS011;57617;51.988;5.854;2023-04-01T19:07:40;11.07;;;6.25;;
70228;SDS011;57617;51.988;5.854;2023-04-01T19:10:15;10.48;;;6.03;;
70228;SDS011;57617;51.988;5.854;2023-04-01T19:15:44;9.27;;;5.65;;
70228;SDS011;57617;51.988;5.854;2023-04-01T19:21:11;11.07;;;5.95;;
70228;SDS011;57617;51.988;5.854;2023-04-01T19:26:23;10.18;;;6.38;;
70228;SDS011;57617;51.988;5.854;2023-04-01T19:31:54;10.85;;;6.50;;
70228;SDS011;57617;51.988;5.854;2023-04-01T19:34:49;12.80;;;6.45;;
70228;SDS011;57617;51.988;5.854;2023-04-01T19:42:41;10.57;;;6.35;;
70228;SDS011;57617;51.988;5.854;2023-04-01T19:51:03;11.00;;;5.93;;
70228;SDS011;57617;51.988;5.854;2023-04-01T19:58:52;10.13;;;5.70;;
70228;SDS011;57617;51.988;5.854;2023-04-01T20:01:35;11.73;;;6.45;;
70228;SDS011;57617;51.988;5.854;2023-04-01T20:04:14;10.30;;;6.38;;
70228;SDS011;57617;51.988;5.854;2023-04-01T20:06:54;13.48;;;6.88;;
70228;SDS011;57617;51.988;5.854;2023-04-01T20:14:50;12.65;;;6.97;;
70228;SDS011;57617;51.988;5.854;2023-04-01T20:17:25;13.43;;;7.20;;
70228;SDS011;57617;51.988;5.854;2023-04-01T20:20:01;13.25;;;7.45;;
70228;SDS011;57617;51.988;5.854;2023-04-01T20:25:22;12.07;;;7.07;;
70228;SDS011;57617;51.988;5.854;2023-04-01T20:30:41;11.85;;;7.13;;
70228;SDS011;57617;51.988;5.854;2023-04-01T20:36:05;17.08;;;7.72;;
70228;SDS011;57617;51.988;5.854;2023-04-01T20:41:27;13.00;;;7.82;;
70228;SDS011;57617;51.988;5.854;2023-04-01T20:44:10;13.60;;;7.78;;
70228;SDS011;57617;51.988;5.854;2023-04-01T20:49:43;13.93;;;7.97;;
70228;SDS011;57617;51.988;5.854;2023-04-01T21:16:26;16.67;;;9.25;;
70228;SDS011;57617;51.988;5.854;2023-04-01T21:19:21;16.75;;;8.82;;
70228;SDS011;57617;51.988;5.854;2023-04-01T21:35:05;16.65;;;8.30;;
70228;SDS011;57617;51.988;5.854;2023-04-01T21:37:45;14.57;;;8.05;;
70228;SDS011;57617;51.988;5.854;2023-04-01T22:03:03;14.48;;;8.68;;
70228;SDS011;57617;51.988;5.854;2023-04-01T22:05:48;14.20;;;8.00;;
70228;SDS011;57617;51.988;5.854;2023-04-01T22:11:17;12.18;;;7.30;;
70228;SDS011;57617;51.988;5.854;2023-04-01T22:16:57;12.73;;;7.75;;
70228;SDS011;57617;51.988;5.854;2023-04-01T22:21:58;14.50;;;7.43;;
70228;SDS011;57617;51.988;5.854;2023-04-01T22:24:46;12.95;;;7.50;;
70228;SDS011;57617;51.988;5.854;2023-04-01T22:27:24;12.20;;;7.40;;
70228;SDS011;57617;51.988;5.854;2023-04-01T22:32:45;12.75;;;8.05;;
70228;SDS011;57617;51.988;5.854;2023-04-01T22:35:24;13.07;;;8.07;;
70228;SDS011;57617;51.988;5.854;2023-04-01T22:38:02;13.82;;;7.68;;
70228;SDS011;57617;51.988;5.854;2023-04-01T22:43:06;11.27;;;6.97;;
70228;SDS011;57617;51.988;5.854;2023-04-01T22:56:22;12.02;;;7.07;;
70228;SDS011;57617;51.988;5.854;2023-04-01T22:59:00;13.50;;;7.35;;
70228;SDS011;57617;51.988;5.854;2023-04-01T23:01:34;13.20;;;7.65;;
70228;SDS011;57617;51.988;5.854;2023-04-01T23:04:05;13.57;;;7.95;;
70228;SDS011;57617;51.988;5.854;2023-04-01T23:06:33;13.95;;;7.55;;
70228;SDS011;57617;51.988;5.854;2023-04-01T23:09:05;14.48;;;8.35;;
70228;SDS011;57617;51.988;5.854;2023-04-01T23:11:35;15.10;;;8.48;;
70228;SDS011;57617;51.988;5.854;2023-04-01T23:16:47;16.73;;;8.63;;
70228;SDS011;57617;51.988;5.854;2023-04-01T23:21:54;15.85;;;8.98;;
70228;SDS011;57617;51.988;5.854;2023-04-01T23:24:36;17.10;;;8.73;;
70228;SDS011;57617;51.988;5.854;2023-04-01T23:27:20;15.13;;;9.05;;
70228;SDS011;57617;51.988;5.854;2023-04-01T23:29:50;18.38;;;9.32;;
70228;SDS011;57617;51.988;5.854;2023-04-01T23:32:17;18.38;;;10.02;;
70228;SDS011;57617;51.988;5.854;2023-04-01T23:34:47;20.67;;;10.60;;
70228;SDS011;57617;51.988;5.854;2023-04-01T23:37:15;22.40;;;11.32;;
70228;SDS011;57617;51.988;5.854;2023-04-01T23:39:43;23.38;;;11.95;;
70228;SDS011;57617;51.988;5.854;2023-04-01T23:44:51;18.23;;;10.07;;
70228;SDS011;57617;51.988;5.854;2023-04-01T23:47:21;17.05;;;9.32;;
70228;SDS011;57617;51.988;5.854;2023-04-01T23:49:55;17.70;;;9.43;;
70228;SDS011;57617;51.988;5.854;2023-04-01T23:52:24;17.42;;;9.13;;
70228;SDS011;57617;51.988;5.854;2023-04-01T23:54:56;16.52;;;8.80;;
70228;SDS011;57617;51.988;5.854;2023-04-01T23:57:29;19.25;;;9.23;;
